sensor_id;sensor_type;location;lat;lon;timestamp;P1;durP1;ratioP1;P2;durP2;ratioP2
49592;SDS011;35499;51.482;4.264;2023-07-30T00:01:21;8.97;;;2.53;;
49592;SDS011;35499;51.482;4.264;2023-07-30T00:03:46;10.10;;;2.17;;
49592;SDS011;35499;51.482;4.264;2023-07-30T00:06:11;8.53;;;1.87;;
49592;SDS011;35499;51.482;4.264;2023-07-30T00:08:36;10.23;;;1.93;;
49592;SDS011;35499;51.482;4.264;2023-07-30T00:11:02;10.37;;;1.70;;
49592;SDS011;35499;51.482;4.264;2023-07-30T00:13:27;4.37;;;1.27;;
49592;SDS011;35499;51.482;4.264;2023-07-30T00:15:54;12.18;;;2.17;;
49592;SDS011;35499;51.482;4.264;2023-07-30T00:18:19;7.63;;;2.30;;
49592;SDS011;35499;51.482;4.264;2023-07-30T00:20:44;6.40;;;1.73;;
49592;SDS011;35499;51.482;4.264;2023-07-30T00:23:09;5.97;;;1.70;;
49592;SDS011;35499;51.482;4.264;2023-07-30T00:25:36;7.93;;;1.50;;
49592;SDS011;35499;51.482;4.264;2023-07-30T00:28:01;6.95;;;1.70;;
49592;SDS011;35499;51.482;4.264;2023-07-30T00:30:26;9.30;;;2.20;;
49592;SDS011;35499;51.482;4.264;2023-07-30T00:32:52;7.93;;;1.80;;
49592;SDS011;35499;51.482;4.264;2023-07-30T00:35:17;9.50;;;1.67;;
49592;SDS011;35499;51.482;4.264;2023-07-30T00:37:42;10.90;;;2.27;;
49592;SDS011;35499;51.482;4.264;2023-07-30T00:40:08;7.10;;;2.00;;
49592;SDS011;35499;51.482;4.264;2023-07-30T00:42:33;7.63;;;1.70;;
49592;SDS011;35499;51.482;4.264;2023-07-30T00:44:59;8.25;;;2.03;;
49592;SDS011;35499;51.482;4.264;2023-07-30T00:47:24;8.70;;;1.80;;
49592;SDS011;35499;51.482;4.264;2023-07-30T00:49:50;11.85;;;2.28;;
49592;SDS011;35499;51.482;4.264;2023-07-30T00:52:16;7.97;;;1.73;;
49592;SDS011;35499;51.482;4.264;2023-07-30T00:54:43;8.68;;;1.92;;
49592;SDS011;35499;51.482;4.264;2023-07-30T00:57:09;6.32;;;1.50;;
49592;SDS011;35499;51.482;4.264;2023-07-30T00:59:35;11.07;;;2.33;;
49592;SDS011;35499;51.482;4.264;2023-07-30T01:02:01;9.73;;;1.83;;
49592;SDS011;35499;51.482;4.264;2023-07-30T01:04:28;7.20;;;1.98;;
49592;SDS011;35499;51.482;4.264;2023-07-30T01:06:53;14.90;;;2.40;;
49592;SDS011;35499;51.482;4.264;2023-07-30T01:09:19;10.15;;;2.47;;
49592;SDS011;35499;51.482;4.264;2023-07-30T01:11:44;4.60;;;1.65;;
49592;SDS011;35499;51.482;4.264;2023-07-30T01:14:10;7.80;;;2.17;;
49592;SDS011;35499;51.482;4.264;2023-07-30T01:16:36;9.20;;;1.95;;
49592;SDS011;35499;51.482;4.264;2023-07-30T01:19:01;11.20;;;3.35;;
49592;SDS011;35499;51.482;4.264;2023-07-30T01:21:31;12.88;;;1.95;;
49592;SDS011;35499;51.482;4.264;2023-07-30T01:24:00;10.20;;;1.80;;
49592;SDS011;35499;51.482;4.264;2023-07-30T01:26:27;14.43;;;2.87;;
49592;SDS011;35499;51.482;4.264;2023-07-30T01:28:56;4.70;;;1.25;;
49592;SDS011;35499;51.482;4.264;2023-07-30T01:31:24;14.20;;;2.05;;
49592;SDS011;35499;51.482;4.264;2023-07-30T01:36:19;8.90;;;1.58;;
49592;SDS011;35499;51.482;4.264;2023-07-30T01:38:45;7.38;;;2.03;;
49592;SDS011;35499;51.482;4.264;2023-07-30T01:41:12;7.65;;;2.05;;
49592;SDS011;35499;51.482;4.264;2023-07-30T01:43:37;8.70;;;1.90;;
49592;SDS011;35499;51.482;4.264;2023-07-30T01:46:02;11.25;;;2.28;;
49592;SDS011;35499;51.482;4.264;2023-07-30T01:48:27;11.47;;;1.97;;
49592;SDS011;35499;51.482;4.264;2023-07-30T01:50:53;14.17;;;2.40;;
49592;SDS011;35499;51.482;4.264;2023-07-30T01:53:18;4.23;;;1.73;;
49592;SDS011;35499;51.482;4.264;2023-07-30T01:55:43;11.73;;;2.63;;
49592;SDS011;35499;51.482;4.264;2023-07-30T01:58:11;11.98;;;2.53;;
49592;SDS011;35499;51.482;4.264;2023-07-30T02:00:37;10.57;;;2.55;;
49592;SDS011;35499;51.482;4.264;2023-07-30T02:03:02;10.10;;;2.00;;
49592;SDS011;35499;51.482;4.264;2023-07-30T02:05:27;13.68;;;2.22;;
49592;SDS011;35499;51.482;4.264;2023-07-30T02:07:56;16.30;;;3.10;;
49592;SDS011;35499;51.482;4.264;2023-07-30T02:10:23;17.55;;;3.85;;
49592;SDS011;35499;51.482;4.264;2023-07-30T02:12:49;10.15;;;2.40;;
49592;SDS011;35499;51.482;4.264;2023-07-30T02:15:14;10.63;;;2.50;;
49592;SDS011;35499;51.482;4.264;2023-07-30T02:17:40;14.53;;;2.47;;
49592;SDS011;35499;51.482;4.264;2023-07-30T02:20:05;11.27;;;2.13;;
49592;SDS011;35499;51.482;4.264;2023-07-30T02:22:31;14.35;;;3.08;;
49592;SDS011;35499;51.482;4.264;2023-07-30T02:24:56;16.43;;;2.73;;
49592;SDS011;35499;51.482;4.264;2023-07-30T02:27:22;14.75;;;3.15;;
49592;SDS011;35499;51.482;4.264;2023-07-30T02:29:48;12.57;;;2.25;;
49592;SDS011;35499;51.482;4.264;2023-07-30T02:32:13;14.50;;;2.30;;
49592;SDS011;35499;51.482;4.264;2023-07-30T02:34:38;14.30;;;3.67;;
49592;SDS011;35499;51.482;4.264;2023-07-30T02:37:03;12.03;;;2.57;;
49592;SDS011;35499;51.482;4.264;2023-07-30T02:39:29;14.23;;;2.80;;
49592;SDS011;35499;51.482;4.264;2023-07-30T02:41:54;11.40;;;2.17;;
49592;SDS011;35499;51.482;4.264;2023-07-30T02:44:19;9.70;;;2.10;;
49592;SDS011;35499;51.482;4.264;2023-07-30T02:46:44;15.67;;;2.53;;
49592;SDS011;35499;51.482;4.264;2023-07-30T02:49:10;12.10;;;2.50;;
49592;SDS011;35499;51.482;4.264;2023-07-30T02:51:35;11.83;;;2.07;;
49592;SDS011;35499;51.482;4.264;2023-07-30T02:54:03;17.77;;;2.67;;
49592;SDS011;35499;51.482;4.264;2023-07-30T02:56:29;12.45;;;2.75;;
49592;SDS011;35499;51.482;4.264;2023-07-30T02:58:55;12.43;;;2.40;;
49592;SDS011;35499;51.482;4.264;2023-07-30T03:01:20;16.33;;;2.60;;
49592;SDS011;35499;51.482;4.264;2023-07-30T03:03:45;10.50;;;2.67;;
49592;SDS011;35499;51.482;4.264;2023-07-30T03:06:10;14.17;;;2.87;;
49592;SDS011;35499;51.482;4.264;2023-07-30T03:08:36;15.23;;;2.60;;
49592;SDS011;35499;51.482;4.264;2023-07-30T03:11:02;14.13;;;2.97;;
49592;SDS011;35499;51.482;4.264;2023-07-30T03:13:27;13.35;;;2.30;;
49592;SDS011;35499;51.482;4.264;2023-07-30T03:15:52;14.03;;;2.33;;
49592;SDS011;35499;51.482;4.264;2023-07-30T03:18:18;13.90;;;2.67;;
49592;SDS011;35499;51.482;4.264;2023-07-30T03:20:43;13.37;;;2.03;;
49592;SDS011;35499;51.482;4.264;2023-07-30T03:23:08;12.07;;;2.77;;
49592;SDS011;35499;51.482;4.264;2023-07-30T03:25:34;26.33;;;2.90;;
49592;SDS011;35499;51.482;4.264;2023-07-30T03:27:59;17.53;;;2.73;;
49592;SDS011;35499;51.482;4.264;2023-07-30T03:30:24;10.53;;;2.13;;
49592;SDS011;35499;51.482;4.264;2023-07-30T03:32:49;14.00;;;2.67;;
49592;SDS011;35499;51.482;4.264;2023-07-30T03:35:15;18.33;;;3.67;;
49592;SDS011;35499;51.482;4.264;2023-07-30T03:37:40;12.95;;;2.17;;
49592;SDS011;35499;51.482;4.264;2023-07-30T03:40:05;12.60;;;2.50;;
49592;SDS011;35499;51.482;4.264;2023-07-30T03:42:31;16.30;;;2.95;;
49592;SDS011;35499;51.482;4.264;2023-07-30T03:44:56;15.33;;;2.30;;
49592;SDS011;35499;51.482;4.264;2023-07-30T03:47:22;16.10;;;2.27;;
49592;SDS011;35499;51.482;4.264;2023-07-30T03:49:47;18.23;;;2.80;;
49592;SDS011;35499;51.482;4.264;2023-07-30T03:52:12;13.03;;;2.23;;
49592;SDS011;35499;51.482;4.264;2023-07-30T03:54:37;13.47;;;2.70;;
49592;SDS011;35499;51.482;4.264;2023-07-30T03:57:03;12.68;;;2.40;;
49592;SDS011;35499;51.482;4.264;2023-07-30T03:59:28;12.00;;;2.78;;
49592;SDS011;35499;51.482;4.264;2023-07-30T04:01:54;12.83;;;2.77;;
49592;SDS011;35499;51.482;4.264;2023-07-30T04:04:19;18.67;;;3.28;;
49592;SDS011;35499;51.482;4.264;2023-07-30T04:06:44;12.73;;;2.27;;
49592;SDS011;35499;51.482;4.264;2023-07-30T04:09:09;12.20;;;2.93;;
49592;SDS011;35499;51.482;4.264;2023-07-30T04:11:35;17.93;;;3.70;;
49592;SDS011;35499;51.482;4.264;2023-07-30T04:14:00;13.13;;;2.63;;
49592;SDS011;35499;51.482;4.264;2023-07-30T04:16:25;16.20;;;2.47;;
49592;SDS011;35499;51.482;4.264;2023-07-30T04:18:51;15.90;;;3.67;;
49592;SDS011;35499;51.482;4.264;2023-07-30T04:21:16;19.97;;;3.03;;
49592;SDS011;35499;51.482;4.264;2023-07-30T04:23:41;5.50;;;1.87;;
49592;SDS011;35499;51.482;4.264;2023-07-30T04:26:06;13.50;;;3.07;;
49592;SDS011;35499;51.482;4.264;2023-07-30T04:28:32;14.27;;;2.42;;
49592;SDS011;35499;51.482;4.264;2023-07-30T04:30:58;14.20;;;2.17;;
49592;SDS011;35499;51.482;4.264;2023-07-30T04:33:23;13.20;;;2.45;;
49592;SDS011;35499;51.482;4.264;2023-07-30T04:35:49;18.02;;;3.63;;
49592;SDS011;35499;51.482;4.264;2023-07-30T04:38:14;21.35;;;3.55;;
49592;SDS011;35499;51.482;4.264;2023-07-30T04:40:39;12.00;;;2.73;;
49592;SDS011;35499;51.482;4.264;2023-07-30T04:43:05;14.10;;;2.67;;
49592;SDS011;35499;51.482;4.264;2023-07-30T04:45:30;13.70;;;2.87;;
49592;SDS011;35499;51.482;4.264;2023-07-30T04:47:56;19.38;;;2.58;;
49592;SDS011;35499;51.482;4.264;2023-07-30T04:50:21;14.80;;;2.65;;
49592;SDS011;35499;51.482;4.264;2023-07-30T04:52:46;12.73;;;2.73;;
49592;SDS011;35499;51.482;4.264;2023-07-30T04:55:12;12.70;;;2.60;;
49592;SDS011;35499;51.482;4.264;2023-07-30T04:57:37;16.33;;;3.17;;
49592;SDS011;35499;51.482;4.264;2023-07-30T05:00:02;11.47;;;2.27;;
49592;SDS011;35499;51.482;4.264;2023-07-30T05:02:28;17.60;;;3.05;;
49592;SDS011;35499;51.482;4.264;2023-07-30T05:04:53;18.43;;;2.70;;
49592;SDS011;35499;51.482;4.264;2023-07-30T05:07:18;13.17;;;2.87;;
49592;SDS011;35499;51.482;4.264;2023-07-30T05:09:44;11.30;;;2.50;;
49592;SDS011;35499;51.482;4.264;2023-07-30T05:12:09;16.43;;;2.47;;
49592;SDS011;35499;51.482;4.264;2023-07-30T05:14:34;15.00;;;3.43;;
49592;SDS011;35499;51.482;4.264;2023-07-30T05:16:59;22.63;;;3.47;;
49592;SDS011;35499;51.482;4.264;2023-07-30T05:19:25;12.50;;;3.07;;
49592;SDS011;35499;51.482;4.264;2023-07-30T05:21:50;10.20;;;3.40;;
49592;SDS011;35499;51.482;4.264;2023-07-30T05:24:15;20.60;;;3.23;;
49592;SDS011;35499;51.482;4.264;2023-07-30T05:26:41;15.97;;;3.60;;
49592;SDS011;35499;51.482;4.264;2023-07-30T05:29:06;18.80;;;3.20;;
49592;SDS011;35499;51.482;4.264;2023-07-30T05:31:31;12.63;;;3.40;;
49592;SDS011;35499;51.482;4.264;2023-07-30T05:33:56;14.07;;;3.60;;
49592;SDS011;35499;51.482;4.264;2023-07-30T05:36:22;11.70;;;2.10;;
49592;SDS011;35499;51.482;4.264;2023-07-30T05:38:47;18.00;;;3.13;;
49592;SDS011;35499;51.482;4.264;2023-07-30T05:41:12;16.17;;;3.03;;
49592;SDS011;35499;51.482;4.264;2023-07-30T05:43:37;18.17;;;4.27;;
49592;SDS011;35499;51.482;4.264;2023-07-30T05:46:03;15.50;;;3.17;;
49592;SDS011;35499;51.482;4.264;2023-07-30T05:48:28;13.50;;;2.87;;
49592;SDS011;35499;51.482;4.264;2023-07-30T05:50:54;16.10;;;2.40;;
49592;SDS011;35499;51.482;4.264;2023-07-30T05:53:19;14.63;;;3.57;;
49592;SDS011;35499;51.482;4.264;2023-07-30T05:55:44;19.73;;;3.30;;
49592;SDS011;35499;51.482;4.264;2023-07-30T05:58:09;11.20;;;2.60;;
49592;SDS011;35499;51.482;4.264;2023-07-30T06:00:35;17.67;;;3.20;;
49592;SDS011;35499;51.482;4.264;2023-07-30T06:03:01;15.33;;;2.27;;
49592;SDS011;35499;51.482;4.264;2023-07-30T06:05:26;15.20;;;2.53;;
49592;SDS011;35499;51.482;4.264;2023-07-30T06:07:51;11.80;;;1.90;;
49592;SDS011;35499;51.482;4.264;2023-07-30T06:10:17;13.07;;;2.40;;
49592;SDS011;35499;51.482;4.264;2023-07-30T06:12:42;13.73;;;2.70;;
49592;SDS011;35499;51.482;4.264;2023-07-30T06:15:08;13.13;;;2.47;;
49592;SDS011;35499;51.482;4.264;2023-07-30T06:17:34;18.60;;;2.08;;
49592;SDS011;35499;51.482;4.264;2023-07-30T06:19:59;14.27;;;2.53;;
49592;SDS011;35499;51.482;4.264;2023-07-30T06:22:24;13.07;;;2.53;;
49592;SDS011;35499;51.482;4.264;2023-07-30T06:24:49;15.57;;;2.90;;
49592;SDS011;35499;51.482;4.264;2023-07-30T06:27:15;17.33;;;2.25;;
49592;SDS011;35499;51.482;4.264;2023-07-30T06:29:40;19.17;;;2.63;;
49592;SDS011;35499;51.482;4.264;2023-07-30T06:32:05;10.93;;;2.30;;
49592;SDS011;35499;51.482;4.264;2023-07-30T06:34:31;10.05;;;2.40;;
49592;SDS011;35499;51.482;4.264;2023-07-30T06:36:56;20.97;;;3.23;;
49592;SDS011;35499;51.482;4.264;2023-07-30T06:39:22;15.57;;;2.30;;
49592;SDS011;35499;51.482;4.264;2023-07-30T06:41:47;11.73;;;2.23;;
49592;SDS011;35499;51.482;4.264;2023-07-30T06:44:12;14.70;;;2.30;;
49592;SDS011;35499;51.482;4.264;2023-07-30T06:46:37;17.00;;;2.87;;
49592;SDS011;35499;51.482;4.264;2023-07-30T06:49:03;15.47;;;2.50;;
49592;SDS011;35499;51.482;4.264;2023-07-30T06:51:28;17.67;;;2.87;;
49592;SDS011;35499;51.482;4.264;2023-07-30T06:53:54;12.18;;;2.45;;
49592;SDS011;35499;51.482;4.264;2023-07-30T06:56:20;23.67;;;3.77;;
49592;SDS011;35499;51.482;4.264;2023-07-30T06:58:45;11.77;;;2.30;;
49592;SDS011;35499;51.482;4.264;2023-07-30T07:01:10;18.83;;;3.20;;
49592;SDS011;35499;51.482;4.264;2023-07-30T07:03:35;17.90;;;3.63;;
49592;SDS011;35499;51.482;4.264;2023-07-30T07:06:01;11.23;;;1.90;;
49592;SDS011;35499;51.482;4.264;2023-07-30T07:08:26;13.37;;;2.60;;
49592;SDS011;35499;51.482;4.264;2023-07-30T07:10:52;13.88;;;2.25;;
49592;SDS011;35499;51.482;4.264;2023-07-30T07:13:17;16.70;;;3.00;;
49592;SDS011;35499;51.482;4.264;2023-07-30T07:15:43;14.07;;;3.03;;
49592;SDS011;35499;51.482;4.264;2023-07-30T07:18:08;17.25;;;4.40;;
49592;SDS011;35499;51.482;4.264;2023-07-30T07:20:35;13.45;;;2.75;;
49592;SDS011;35499;51.482;4.264;2023-07-30T07:23:00;10.13;;;2.45;;
49592;SDS011;35499;51.482;4.264;2023-07-30T07:25:26;9.57;;;2.43;;
49592;SDS011;35499;51.482;4.264;2023-07-30T07:27:51;14.07;;;3.23;;
49592;SDS011;35499;51.482;4.264;2023-07-30T07:30:16;14.13;;;2.50;;
49592;SDS011;35499;51.482;4.264;2023-07-30T07:32:43;16.63;;;3.08;;
49592;SDS011;35499;51.482;4.264;2023-07-30T07:35:08;13.95;;;2.55;;
49592;SDS011;35499;51.482;4.264;2023-07-30T07:37:34;17.80;;;4.30;;
49592;SDS011;35499;51.482;4.264;2023-07-30T07:39:59;12.88;;;3.28;;
49592;SDS011;35499;51.482;4.264;2023-07-30T07:42:24;8.33;;;2.20;;
49592;SDS011;35499;51.482;4.264;2023-07-30T07:44:50;15.05;;;2.63;;
49592;SDS011;35499;51.482;4.264;2023-07-30T07:47:15;13.67;;;2.90;;
49592;SDS011;35499;51.482;4.264;2023-07-30T07:49:41;15.38;;;2.90;;
49592;SDS011;35499;51.482;4.264;2023-07-30T07:52:06;16.93;;;2.57;;
49592;SDS011;35499;51.482;4.264;2023-07-30T07:54:32;17.25;;;3.92;;
49592;SDS011;35499;51.482;4.264;2023-07-30T07:56:57;9.15;;;2.38;;
49592;SDS011;35499;51.482;4.264;2023-07-30T07:59:23;9.27;;;2.30;;
49592;SDS011;35499;51.482;4.264;2023-07-30T08:01:48;16.95;;;2.85;;
49592;SDS011;35499;51.482;4.264;2023-07-30T08:04:14;14.98;;;2.28;;
49592;SDS011;35499;51.482;4.264;2023-07-30T08:06:39;9.48;;;2.67;;
49592;SDS011;35499;51.482;4.264;2023-07-30T08:09:05;11.30;;;2.70;;
49592;SDS011;35499;51.482;4.264;2023-07-30T08:11:30;13.02;;;2.10;;
49592;SDS011;35499;51.482;4.264;2023-07-30T08:13:55;8.30;;;1.83;;
49592;SDS011;35499;51.482;4.264;2023-07-30T08:16:22;12.35;;;1.83;;
49592;SDS011;35499;51.482;4.264;2023-07-30T08:18:47;7.63;;;2.00;;
49592;SDS011;35499;51.482;4.264;2023-07-30T08:21:12;17.87;;;2.93;;
49592;SDS011;35499;51.482;4.264;2023-07-30T08:23:38;7.68;;;1.88;;
49592;SDS011;35499;51.482;4.264;2023-07-30T08:26:03;7.83;;;1.47;;
49592;SDS011;35499;51.482;4.264;2023-07-30T08:28:28;12.87;;;1.63;;
49592;SDS011;35499;51.482;4.264;2023-07-30T08:30:59;6.53;;;1.33;;
49592;SDS011;35499;51.482;4.264;2023-07-30T08:33:28;9.70;;;2.38;;
49592;SDS011;35499;51.482;4.264;2023-07-30T08:35:58;11.40;;;2.40;;
49592;SDS011;35499;51.482;4.264;2023-07-30T08:38:24;7.93;;;2.28;;
49592;SDS011;35499;51.482;4.264;2023-07-30T08:40:49;7.05;;;1.67;;
49592;SDS011;35499;51.482;4.264;2023-07-30T08:43:15;15.50;;;2.78;;
49592;SDS011;35499;51.482;4.264;2023-07-30T08:45:41;8.20;;;2.08;;
49592;SDS011;35499;51.482;4.264;2023-07-30T08:48:06;12.35;;;1.83;;
49592;SDS011;35499;51.482;4.264;2023-07-30T08:50:32;9.55;;;1.58;;
49592;SDS011;35499;51.482;4.264;2023-07-30T08:52:58;7.03;;;1.40;;
49592;SDS011;35499;51.482;4.264;2023-07-30T08:55:25;7.10;;;1.20;;
49592;SDS011;35499;51.482;4.264;2023-07-30T08:57:53;11.20;;;1.58;;
49592;SDS011;35499;51.482;4.264;2023-07-30T09:04:33;5.35;;;1.60;;
49592;SDS011;35499;51.482;4.264;2023-07-30T09:07:01;6.03;;;1.58;;
49592;SDS011;35499;51.482;4.264;2023-07-30T09:09:26;4.75;;;1.25;;
49592;SDS011;35499;51.482;4.264;2023-07-30T09:11:52;9.43;;;1.33;;
49592;SDS011;35499;51.482;4.264;2023-07-30T09:14:20;5.80;;;1.17;;
49592;SDS011;35499;51.482;4.264;2023-07-30T09:16:48;7.78;;;1.23;;
49592;SDS011;35499;51.482;4.264;2023-07-30T09:19:21;9.18;;;1.95;;
49592;SDS011;35499;51.482;4.264;2023-07-30T09:21:46;3.70;;;0.90;;
49592;SDS011;35499;51.482;4.264;2023-07-30T09:24:12;6.47;;;0.98;;
49592;SDS011;35499;51.482;4.264;2023-07-30T09:26:43;5.97;;;1.60;;
49592;SDS011;35499;51.482;4.264;2023-07-30T09:29:11;5.88;;;1.05;;
49592;SDS011;35499;51.482;4.264;2023-07-30T09:31:46;5.97;;;0.70;;
49592;SDS011;35499;51.482;4.264;2023-07-30T09:34:22;4.95;;;1.00;;
49592;SDS011;35499;51.482;4.264;2023-07-30T09:36:52;5.97;;;0.82;;
49592;SDS011;35499;51.482;4.264;2023-07-30T09:39:20;6.78;;;0.98;;
49592;SDS011;35499;51.482;4.264;2023-07-30T09:41:50;4.95;;;0.95;;
49592;SDS011;35499;51.482;4.264;2023-07-30T09:44:17;9.68;;;0.80;;
49592;SDS011;35499;51.482;4.264;2023-07-30T09:46:43;4.90;;;0.70;;
49592;SDS011;35499;51.482;4.264;2023-07-30T09:49:10;7.60;;;0.77;;
49592;SDS011;35499;51.482;4.264;2023-07-30T09:51:38;4.70;;;0.75;;
49592;SDS011;35499;51.482;4.264;2023-07-30T09:54:07;10.40;;;1.15;;
49592;SDS011;35499;51.482;4.264;2023-07-30T09:56:35;6.85;;;0.80;;
49592;SDS011;35499;51.482;4.264;2023-07-30T09:59:01;4.30;;;0.68;;
49592;SDS011;35499;51.482;4.264;2023-07-30T10:01:28;7.75;;;0.70;;
49592;SDS011;35499;51.482;4.264;2023-07-30T10:03:56;4.57;;;0.80;;
49592;SDS011;35499;51.482;4.264;2023-07-30T10:06:22;7.88;;;1.02;;
49592;SDS011;35499;51.482;4.264;2023-07-30T10:08:50;5.88;;;0.88;;
49592;SDS011;35499;51.482;4.264;2023-07-30T10:11:18;3.33;;;0.63;;
49592;SDS011;35499;51.482;4.264;2023-07-30T10:13:44;5.40;;;0.68;;
49592;SDS011;35499;51.482;4.264;2023-07-30T10:16:10;6.43;;;1.08;;
49592;SDS011;35499;51.482;4.264;2023-07-30T10:18:40;3.75;;;0.57;;
49592;SDS011;35499;51.482;4.264;2023-07-30T10:21:07;6.10;;;0.65;;
49592;SDS011;35499;51.482;4.264;2023-07-30T10:23:34;5.78;;;0.80;;
49592;SDS011;35499;51.482;4.264;2023-07-30T10:25:59;9.53;;;1.17;;
49592;SDS011;35499;51.482;4.264;2023-07-30T10:28:34;3.53;;;0.63;;
49592;SDS011;35499;51.482;4.264;2023-07-30T10:31:06;4.20;;;0.70;;
49592;SDS011;35499;51.482;4.264;2023-07-30T10:33:56;4.43;;;0.85;;
49592;SDS011;35499;51.482;4.264;2023-07-30T10:36:32;6.20;;;0.65;;
49592;SDS011;35499;51.482;4.264;2023-07-30T10:39:34;3.08;;;0.55;;
49592;SDS011;35499;51.482;4.264;2023-07-30T10:42:00;3.88;;;1.00;;
49592;SDS011;35499;51.482;4.264;2023-07-30T10:44:26;4.85;;;0.63;;
49592;SDS011;35499;51.482;4.264;2023-07-30T10:46:59;10.55;;;1.00;;
49592;SDS011;35499;51.482;4.264;2023-07-30T10:49:26;4.85;;;0.60;;
49592;SDS011;35499;51.482;4.264;2023-07-30T10:51:52;3.40;;;0.55;;
49592;SDS011;35499;51.482;4.264;2023-07-30T10:54:19;6.13;;;0.80;;
49592;SDS011;35499;51.482;4.264;2023-07-30T10:56:44;5.85;;;0.75;;
49592;SDS011;35499;51.482;4.264;2023-07-30T10:59:10;4.30;;;0.52;;
49592;SDS011;35499;51.482;4.264;2023-07-30T11:01:40;3.25;;;0.60;;
49592;SDS011;35499;51.482;4.264;2023-07-30T11:04:08;4.63;;;0.70;;
49592;SDS011;35499;51.482;4.264;2023-07-30T11:06:34;3.75;;;0.60;;
49592;SDS011;35499;51.482;4.264;2023-07-30T11:08:59;4.72;;;0.63;;
49592;SDS011;35499;51.482;4.264;2023-07-30T11:11:25;3.47;;;0.60;;
49592;SDS011;35499;51.482;4.264;2023-07-30T11:13:50;4.78;;;0.90;;
49592;SDS011;35499;51.482;4.264;2023-07-30T11:16:16;6.95;;;0.88;;
49592;SDS011;35499;51.482;4.264;2023-07-30T11:18:41;6.47;;;0.60;;
49592;SDS011;35499;51.482;4.264;2023-07-30T11:21:08;5.25;;;0.65;;
49592;SDS011;35499;51.482;4.264;2023-07-30T11:23:35;5.05;;;0.68;;
49592;SDS011;35499;51.482;4.264;2023-07-30T11:26:02;5.25;;;0.55;;
49592;SDS011;35499;51.482;4.264;2023-07-30T11:28:29;4.85;;;0.90;;
49592;SDS011;35499;51.482;4.264;2023-07-30T11:31:02;3.90;;;0.68;;
49592;SDS011;35499;51.482;4.264;2023-07-30T11:33:30;3.95;;;0.38;;
49592;SDS011;35499;51.482;4.264;2023-07-30T11:35:55;5.07;;;0.70;;
49592;SDS011;35499;51.482;4.264;2023-07-30T11:38:23;2.50;;;0.60;;
49592;SDS011;35499;51.482;4.264;2023-07-30T11:40:50;3.63;;;0.93;;
49592;SDS011;35499;51.482;4.264;2023-07-30T11:43:17;7.63;;;0.50;;
49592;SDS011;35499;51.482;4.264;2023-07-30T11:45:42;2.53;;;0.43;;
49592;SDS011;35499;51.482;4.264;2023-07-30T11:48:10;4.65;;;0.50;;
49592;SDS011;35499;51.482;4.264;2023-07-30T11:50:43;5.05;;;0.50;;
49592;SDS011;35499;51.482;4.264;2023-07-30T11:53:11;3.05;;;0.77;;
49592;SDS011;35499;51.482;4.264;2023-07-30T11:55:37;4.50;;;0.83;;
49592;SDS011;35499;51.482;4.264;2023-07-30T11:58:03;4.70;;;0.88;;
49592;SDS011;35499;51.482;4.264;2023-07-30T12:00:29;3.67;;;0.60;;
49592;SDS011;35499;51.482;4.264;2023-07-30T12:02:59;4.03;;;0.52;;
49592;SDS011;35499;51.482;4.264;2023-07-30T12:05:37;3.60;;;0.50;;
49592;SDS011;35499;51.482;4.264;2023-07-30T12:08:03;2.58;;;0.43;;
49592;SDS011;35499;51.482;4.264;2023-07-30T12:10:47;5.35;;;0.63;;
49592;SDS011;35499;51.482;4.264;2023-07-30T12:13:17;4.90;;;0.63;;
49592;SDS011;35499;51.482;4.264;2023-07-30T12:15:44;3.00;;;0.80;;
49592;SDS011;35499;51.482;4.264;2023-07-30T12:18:16;4.43;;;0.30;;
49592;SDS011;35499;51.482;4.264;2023-07-30T12:20:42;4.43;;;0.73;;
49592;SDS011;35499;51.482;4.264;2023-07-30T12:23:07;3.53;;;0.60;;
49592;SDS011;35499;51.482;4.264;2023-07-30T12:25:33;3.87;;;0.70;;
49592;SDS011;35499;51.482;4.264;2023-07-30T12:27:59;5.95;;;0.98;;
49592;SDS011;35499;51.482;4.264;2023-07-30T12:30:24;6.97;;;0.70;;
49592;SDS011;35499;51.482;4.264;2023-07-30T12:32:51;7.10;;;0.80;;
49592;SDS011;35499;51.482;4.264;2023-07-30T12:35:16;5.30;;;0.70;;
49592;SDS011;35499;51.482;4.264;2023-07-30T12:37:41;5.40;;;0.83;;
49592;SDS011;35499;51.482;4.264;2023-07-30T12:40:07;7.40;;;1.00;;
49592;SDS011;35499;51.482;4.264;2023-07-30T12:42:33;7.65;;;1.98;;
49592;SDS011;35499;51.482;4.264;2023-07-30T12:44:58;7.07;;;1.00;;
49592;SDS011;35499;51.482;4.264;2023-07-30T12:47:23;10.37;;;1.10;;
49592;SDS011;35499;51.482;4.264;2023-07-30T12:49:48;7.33;;;1.13;;
49592;SDS011;35499;51.482;4.264;2023-07-30T12:52:14;7.07;;;0.93;;
49592;SDS011;35499;51.482;4.264;2023-07-30T12:54:39;8.67;;;1.30;;
49592;SDS011;35499;51.482;4.264;2023-07-30T12:57:05;5.05;;;0.75;;
49592;SDS011;35499;51.482;4.264;2023-07-30T12:59:31;9.52;;;1.42;;
49592;SDS011;35499;51.482;4.264;2023-07-30T13:01:56;8.33;;;1.40;;
49592;SDS011;35499;51.482;4.264;2023-07-30T13:04:21;8.70;;;1.03;;
49592;SDS011;35499;51.482;4.264;2023-07-30T13:06:46;7.53;;;1.17;;
49592;SDS011;35499;51.482;4.264;2023-07-30T13:09:12;4.77;;;0.80;;
49592;SDS011;35499;51.482;4.264;2023-07-30T13:11:37;7.10;;;1.17;;
49592;SDS011;35499;51.482;4.264;2023-07-30T13:14:02;6.73;;;1.00;;
49592;SDS011;35499;51.482;4.264;2023-07-30T13:16:27;7.67;;;1.33;;
49592;SDS011;35499;51.482;4.264;2023-07-30T13:18:53;11.53;;;1.97;;
49592;SDS011;35499;51.482;4.264;2023-07-30T13:21:21;5.25;;;0.90;;
49592;SDS011;35499;51.482;4.264;2023-07-30T13:23:47;6.20;;;1.13;;
49592;SDS011;35499;51.482;4.264;2023-07-30T13:26:12;6.80;;;1.10;;
49592;SDS011;35499;51.482;4.264;2023-07-30T13:28:37;6.23;;;1.37;;
49592;SDS011;35499;51.482;4.264;2023-07-30T13:31:03;9.03;;;1.13;;
49592;SDS011;35499;51.482;4.264;2023-07-30T13:33:28;9.00;;;0.70;;
49592;SDS011;35499;51.482;4.264;2023-07-30T13:35:53;6.67;;;0.60;;
49592;SDS011;35499;51.482;4.264;2023-07-30T13:38:18;6.77;;;0.93;;
49592;SDS011;35499;51.482;4.264;2023-07-30T13:40:46;2.70;;;0.68;;
49592;SDS011;35499;51.482;4.264;2023-07-30T13:43:11;7.80;;;1.13;;
49592;SDS011;35499;51.482;4.264;2023-07-30T13:45:37;3.93;;;0.80;;
49592;SDS011;35499;51.482;4.264;2023-07-30T13:48:02;8.47;;;1.60;;
49592;SDS011;35499;51.482;4.264;2023-07-30T13:50:27;7.18;;;1.67;;
49592;SDS011;35499;51.482;4.264;2023-07-30T13:52:53;7.43;;;1.25;;
49592;SDS011;35499;51.482;4.264;2023-07-30T13:55:18;6.93;;;1.63;;
49592;SDS011;35499;51.482;4.264;2023-07-30T13:57:45;10.27;;;1.08;;
49592;SDS011;35499;51.482;4.264;2023-07-30T14:00:10;10.77;;;1.30;;
49592;SDS011;35499;51.482;4.264;2023-07-30T14:02:36;7.55;;;1.25;;
49592;SDS011;35499;51.482;4.264;2023-07-30T14:05:01;9.60;;;1.17;;
49592;SDS011;35499;51.482;4.264;2023-07-30T14:07:27;7.00;;;1.00;;
49592;SDS011;35499;51.482;4.264;2023-07-30T14:09:52;9.97;;;1.97;;
49592;SDS011;35499;51.482;4.264;2023-07-30T14:12:18;5.57;;;1.10;;
49592;SDS011;35499;51.482;4.264;2023-07-30T14:14:43;6.07;;;1.33;;
49592;SDS011;35499;51.482;4.264;2023-07-30T14:17:08;10.77;;;0.90;;
49592;SDS011;35499;51.482;4.264;2023-07-30T14:19:33;5.70;;;1.03;;
49592;SDS011;35499;51.482;4.264;2023-07-30T14:21:59;5.90;;;0.87;;
49592;SDS011;35499;51.482;4.264;2023-07-30T14:24:24;5.43;;;0.68;;
49592;SDS011;35499;51.482;4.264;2023-07-30T14:26:50;6.07;;;0.87;;
49592;SDS011;35499;51.482;4.264;2023-07-30T14:29:15;4.68;;;0.95;;
49592;SDS011;35499;51.482;4.264;2023-07-30T14:31:40;8.63;;;1.07;;
49592;SDS011;35499;51.482;4.264;2023-07-30T14:34:05;7.23;;;1.10;;
49592;SDS011;35499;51.482;4.264;2023-07-30T14:36:31;8.00;;;1.13;;
49592;SDS011;35499;51.482;4.264;2023-07-30T14:38:56;7.47;;;0.93;;
49592;SDS011;35499;51.482;4.264;2023-07-30T14:41:21;9.48;;;1.30;;